N731GV LLHZ-LLHZ

Flight info

Callsign N731GV
Flight time 0h 3m
Altitude 5000
Route CVFR ROUTES
Aircraft B36T/L-V/N

Departure

Time 2026-04-22 17:16
Airport Herzliya Airport (LLHZ)

Arrival

Time 2026-04-22 17:20
Airport Herzliya Airport (LLHZ)
Time Latitude Longitude Altitude Speed Heading
2026-04-22 17:09 32.17874 34.83805 119 ft 0 kts 290°
2026-04-22 17:14 32.17886 34.83794 119 ft 3 kts 26°
2026-04-22 17:14 32.17884 34.83830 120 ft 8 kts 110°
2026-04-22 17:14 32.17881 34.83841 120 ft 0 kts 98°
2026-04-22 17:15 32.17901 34.83866 123 ft 11 kts
2026-04-22 17:16 32.17927 34.83807 120 ft 32 kts 290°
2026-04-22 17:16 32.18113 34.83182 227 ft 111 kts 290°
2026-04-22 17:16 32.18680 34.82826 767 ft 107 kts 12°
2026-04-22 17:16 32.19249 34.83250 782 ft 105 kts 72°
2026-04-22 17:17 32.19092 34.84199 766 ft 130 kts 109°
2026-04-22 17:17 32.18751 34.85099 715 ft 105 kts 120°
2026-04-22 17:17 32.18083 34.85297 608 ft 113 kts 200°
2026-04-22 17:17 32.17689 34.84647 331 ft 100 kts 285°
2026-04-22 17:18 32.17912 34.83849 145 ft 105 kts 292°
2026-04-22 17:18 32.18135 34.83105 130 ft 104 kts 294°
2026-04-22 17:18 32.18713 34.82860 677 ft 110 kts 13°
2026-04-22 17:18 32.19299 34.83204 767 ft 96 kts 81°
2026-04-22 17:19 32.18637 34.85069 655 ft 120 kts 125°
2026-04-22 17:19 32.17695 34.84601 366 ft 101 kts 289°
2026-04-22 17:20 32.18069 34.83331 99 ft 33 kts 289°
2026-04-22 17:20 32.18107 34.83072 96 ft 5 kts 126°
2026-04-22 17:21 32.18070 34.83205 99 ft 23 kts 109°
2026-04-22 17:21 32.17985 34.83493 106 ft 28 kts 109°
2026-04-22 17:22 32.17898 34.83784 117 ft 16 kts 110°
2026-04-22 17:22 32.17880 34.83845 120 ft 0 kts 95°
2026-04-22 17:23 32.17909 34.83865 123 ft 5 kts 333°
2026-04-22 17:23 32.17923 34.83820 122 ft 23 kts 289°
2026-04-22 17:23 32.18093 34.83250 149 ft 115 kts 291°
2026-04-22 17:24 32.18621 34.82733 806 ft 115 kts 12°
2026-04-22 17:24 32.19241 34.83248 804 ft 117 kts 81°
2026-04-22 17:24 32.19037 34.84201 727 ft 125 kts 114°
2026-04-22 17:24 32.18599 34.85165 794 ft 132 kts 127°
2026-04-22 17:25 32.17866 34.85192 546 ft 109 kts 211°
2026-04-22 17:25 32.17728 34.84495 330 ft 93 kts 288°
2026-04-22 17:25 32.17932 34.83782 120 ft 82 kts 292°
2026-04-22 17:25 32.18133 34.83109 159 ft 110 kts 291°
2026-04-22 17:26 32.18756 34.82805 632 ft 127 kts 16°
2026-04-22 17:26 32.19302 34.83589 853 ft 157 kts 100°
2026-04-22 17:26 32.18908 34.84854 937 ft 154 kts 116°
2026-04-22 17:26 32.18181 34.84853 581 ft 122 kts 221°
2026-04-22 17:27 32.17863 34.84168 284 ft 84 kts 279°
2026-04-22 17:27 32.18000 34.83559 107 ft 68 kts 289°
2026-04-22 17:27 32.18254 34.82865 347 ft 105 kts 325°
2026-04-22 17:27 32.19039 34.82956 694 ft 134 kts 25°
2026-04-22 17:28 32.19260 34.83847 749 ft 116 kts 106°
2026-04-22 17:28 32.18932 34.84716 764 ft 125 kts 112°
2026-04-22 17:28 32.18343 34.85280 677 ft 109 kts 189°
2026-04-22 17:28 32.17737 34.84911 472 ft 113 kts 248°
2026-04-22 17:29 32.17830 34.84129 222 ft 86 kts 289°
2026-04-22 17:29 32.18023 34.83477 105 ft 76 kts 291°
2026-04-22 17:29 32.18224 34.82827 141 ft 106 kts 303°
2026-04-22 17:29 32.18888 34.82864 443 ft 117 kts 33°
2026-04-22 17:30 32.19248 34.83644 824 ft 130 kts 104°
2026-04-22 17:30 32.18794 34.84615 884 ft 128 kts 173°
2026-04-22 17:30 32.18054 34.84298 590 ft 106 kts 212°
2026-04-22 17:30 32.17972 34.83644 115 ft 79 kts 292°
2026-04-22 17:31 32.18170 34.82998 153 ft 104 kts 297°
2026-04-22 17:31 32.18764 34.82816 547 ft 112 kts 27°
2026-04-22 17:31 32.19139 34.83558 859 ft 120 kts 94°
2026-04-22 17:31 32.18882 34.84474 752 ft 115 kts 115°
2026-04-22 17:32 32.18399 34.85237 701 ft 116 kts 156°
2026-04-22 17:32 32.17733 34.85024 474 ft 99 kts 247°
2026-04-22 17:32 32.17838 34.84097 207 ft 149 kts 292°
2026-04-22 17:32 32.18222 34.82995 588 ft 114 kts 323°
2026-04-22 17:33 32.18745 34.82885 802 ft 133 kts 12°
2026-04-22 17:33 32.19004 34.84091 981 ft 161 kts 127°
2026-04-22 17:33 32.18167 34.84387 796 ft 111 kts 182°